Time;durP1;ratioP1;P1;durP2;ratioP2;P2;SDS_P1;SDS_P2;PMS_P1;PMS_P2;Temp;Humidity;BMP_temperature;BMP_pressure;BME280_temperature;BME280_humidity;BME280_pressure;Samples;Min_cycle;Max_cycle;Signal;HPM_P1;HPM_P2
2022/12/06 00:01:45;;;;;;;2.88;1.30;;;19.50;56.60;;;;;;5010521;28;20038;-68
2022/12/06 00:04:13;;;;;;;2.40;1.20;;;19.50;56.60;;;;;;5013623;28;20050;-62
2022/12/06 00:06:46;;;;;;;2.33;1.17;;;19.40;56.50;;;;;;5007720;28;20442;-61
2022/12/06 00:09:20;;;;;;;3.83;1.10;;;19.40;56.50;;;;;;5008466;28;20141;-66
2022/12/06 00:11:46;;;;;;;2.00;1.20;;;19.50;56.60;;;;;;5009486;28;20112;-67
2022/12/06 00:14:12;;;;;;;2.38;1.30;;;19.50;56.60;;;;;;5009278;28;20127;-61
2022/12/06 00:16:38;;;;;;;3.83;1.10;;;19.50;56.50;;;;;;5007826;28;20033;-62
2022/12/06 00:19:06;;;;;;;2.75;1.00;;;19.40;56.50;;;;;;5010267;28;20088;-70
2022/12/06 00:21:36;;;;;;;2.63;1.30;;;19.40;56.40;;;;;;5016447;28;20120;-74
2022/12/06 00:24:13;;;;;;;4.03;1.35;;;19.40;56.50;;;;;;5003598;28;20084;-66
2022/12/06 00:26:41;;;;;;;2.45;1.15;;;19.40;56.40;;;;;;5014986;28;20083;-73
2022/12/06 00:29:17;;;;;;;2.75;1.15;;;19.40;56.50;;;;;;5009177;28;20045;-74
2022/12/06 00:31:43;;;;;;;3.25;1.20;;;19.40;56.40;;;;;;5009195;28;20491;-67
2022/12/06 00:34:08;;;;;;;2.95;1.00;;;19.40;56.40;;;;;;5009364;28;20044;-73
2022/12/06 00:36:37;;;;;;;3.80;1.23;;;19.40;56.40;;;;;;5014472;28;20048;-71
2022/12/06 00:39:05;;;;;;;2.60;1.00;;;19.40;57.10;;;;;;5012756;28;20050;-67
2022/12/06 00:41:32;;;;;;;2.05;1.15;;;19.40;56.30;;;;;;5001031;28;20126;-71
2022/12/06 00:43:58;;;;;;;4.20;1.40;;;19.40;56.30;;;;;;4998576;28;20046;-64
2022/12/06 00:46:26;;;;;;;3.20;1.20;;;19.40;56.30;;;;;;5009786;28;20243;-73
2022/12/06 00:48:53;;;;;;;1.80;0.93;;;19.40;56.30;;;;;;5012957;28;20529;-67
2022/12/06 00:51:20;;;;;;;1.42;1.10;;;19.40;56.30;;;;;;5019756;28;20529;-72
2022/12/06 00:53:47;;;;;;;2.60;1.10;;;19.40;56.20;;;;;;4994593;28;20042;-71
2022/12/06 00:56:13;;;;;;;2.08;1.00;;;19.40;56.30;;;;;;4995957;28;20042;-73
2022/12/06 00:58:38;;;;;;;1.60;0.98;;;19.40;56.20;;;;;;5003566;28;20034;-74
2022/12/06 01:01:12;;;;;;;1.70;0.90;;;19.40;56.10;;;;;;5002585;28;20528;-68
2022/12/06 01:03:39;;;;;;;3.00;1.30;;;19.40;56.10;;;;;;5004963;28;20048;-73
2022/12/06 01:06:07;;;;;;;2.47;1.02;;;19.40;56.20;;;;;;5011762;28;20052;-73
2022/12/06 01:08:35;;;;;;;2.00;0.95;;;19.30;56.10;;;;;;5012503;28;20182;-74
2022/12/06 01:11:01;;;;;;;2.42;1.17;;;19.30;56.10;;;;;;5009822;28;20029;-74
2022/12/06 01:13:27;;;;;;;1.85;0.90;;;19.30;56.10;;;;;;4990729;28;20128;-74
2022/12/06 01:15:53;;;;;;;1.40;0.90;;;19.40;56.10;;;;;;5011199;28;20052;-72
2022/12/06 01:18:20;;;;;;;2.95;0.90;;;19.40;56.00;;;;;;5011773;28;20038;-73
2022/12/06 01:20:46;;;;;;;2.90;1.00;;;19.40;56.00;;;;;;5010515;28;20050;-69
2022/12/06 01:23:12;;;;;;;1.83;1.00;;;19.40;56.00;;;;;;5003415;28;20116;-71
2022/12/06 01:25:39;;;;;;;1.30;0.80;;;19.40;56.00;;;;;;5005458;28;20041;-73
2022/12/06 01:28:04;;;;;;;2.92;0.80;;;19.40;56.00;;;;;;5004513;28;20053;-74
2022/12/06 01:30:30;;;;;;;1.58;0.82;;;19.40;56.00;;;;;;5003837;28;21737;-74
2022/12/06 01:32:55;;;;;;;1.70;0.90;;;19.40;55.90;;;;;;5005278;28;20374;-71
2022/12/06 01:35:22;;;;;;;1.70;0.80;;;19.40;55.90;;;;;;5011042;28;20038;-72
2022/12/06 01:37:48;;;;;;;1.45;0.90;;;19.40;55.90;;;;;;5009544;28;20044;-74
2022/12/06 01:40:13;;;;;;;2.63;1.10;;;19.40;55.80;;;;;;5007469;28;20049;-71
2022/12/06 01:42:39;;;;;;;1.80;0.88;;;19.40;55.80;;;;;;5005149;28;20159;-74
2022/12/06 01:45:05;;;;;;;2.00;0.95;;;19.40;55.70;;;;;;5003177;28;20536;-73
2022/12/06 01:47:42;;;;;;;1.23;0.80;;;19.40;55.70;;;;;;4994475;28;20221;-72
2022/12/06 01:50:36;;;;;;;2.33;1.02;;;19.40;55.70;;;;;;4987551;28;20613;-73
2022/12/06 01:53:07;;;;;;;1.38;0.98;;;19.40;55.70;;;;;;4976197;28;20054;-74
2022/12/06 01:55:36;;;;;;;2.40;0.88;;;19.40;55.70;;;;;;4977969;28;20050;-73
2022/12/06 01:58:10;;;;;;;1.75;0.90;;;19.40;55.70;;;;;;4979117;28;20069;-72
2022/12/06 02:00:35;;;;;;;1.90;0.88;;;19.40;55.70;;;;;;4976508;28;20086;-69
2022/12/06 02:03:03;;;;;;;2.17;0.82;;;19.40;55.60;;;;;;4994850;28;20514;-71
2022/12/06 02:05:29;;;;;;;2.05;0.80;;;19.40;55.60;;;;;;4981544;28;20150;-70
2022/12/06 02:07:56;;;;;;;2.05;0.80;;;19.40;55.60;;;;;;4982549;28;20422;-64
2022/12/06 02:10:22;;;;;;;1.23;0.70;;;19.40;55.60;;;;;;4985835;28;20061;-69
2022/12/06 02:12:52;;;;;;;1.35;0.68;;;19.40;56.30;;;;;;4982218;28;20053;-69
2022/12/06 02:15:22;;;;;;;2.33;1.00;;;19.40;55.60;;;;;;4985293;28;20053;-64
2022/12/06 02:17:58;;;;;;;1.58;0.80;;;19.40;55.50;;;;;;4986455;28;20074;-64
2022/12/06 02:20:30;;;;;;;0.95;0.60;;;19.40;55.50;;;;;;4984257;28;20199;-71
2022/12/06 02:23:20;;;;;;;1.23;0.75;;;19.40;55.50;;;;;;4979857;28;20064;-63
2022/12/06 02:25:46;;;;;;;1.73;0.70;;;19.40;55.40;;;;;;4987441;28;20252;-72
2022/12/06 02:28:38;;;;;;;1.48;0.70;;;19.40;55.40;;;;;;4985985;28;20589;-67
2022/12/06 02:31:07;;;;;;;2.05;0.80;;;19.40;55.30;;;;;;4978673;28;20146;-68
2022/12/06 02:33:43;;;;;;;1.52;0.82;;;19.40;55.30;;;;;;4982940;28;20546;-63
2022/12/06 02:36:37;;;;;;;1.35;0.88;;;19.40;55.30;;;;;;4989034;28;20054;-68
2022/12/06 02:39:47;;;;;;;1.42;0.68;;;19.40;55.40;;;;;;4986424;28;20313;-66
2022/12/06 02:42:41;;;;;;;1.83;0.68;;;19.40;55.30;;;;;;5009722;28;20057;-62
2022/12/06 02:45:16;;;;;;;1.95;0.80;;;19.50;55.30;;;;;;4985533;28;20168;-66
2022/12/06 02:47:44;;;;;;;1.40;0.80;;;19.50;55.30;;;;;;4985877;28;20065;-63
2022/12/06 02:50:18;;;;;;;1.70;0.70;;;19.50;55.20;;;;;;4982721;28;20698;-69
2022/12/06 02:52:47;;;;;;;1.77;0.80;;;19.50;55.10;;;;;;4989687;28;20069;-66
2022/12/06 02:55:14;;;;;;;1.55;0.90;;;19.50;55.10;;;;;;4988000;28;20421;-63
2022/12/06 02:57:43;;;;;;;0.90;0.70;;;19.50;55.10;;;;;;4989356;28;20224;-72
2022/12/06 03:00:37;;;;;;;1.85;0.75;;;19.50;55.10;;;;;;4984119;28;20523;-65
2022/12/06 03:03:40;;;;;;;1.35;0.80;;;19.50;55.10;;;;;;4983065;28;20046;-64
2022/12/06 03:06:31;;;;;;;1.52;0.80;;;19.50;55.10;;;;;;4988488;28;20080;-63
2022/12/06 03:09:17;;;;;;;1.55;0.70;;;19.50;55.10;;;;;;4981180;28;20108;-71
2022/12/06 03:12:00;;;;;;;1.52;0.52;;;19.50;55.10;;;;;;4979085;28;20046;-67
2022/12/06 03:14:34;;;;;;;1.13;0.70;;;19.50;55.20;;;;;;4984160;28;20062;-67
2022/12/06 03:17:14;;;;;;;1.17;0.73;;;19.50;55.00;;;;;;4990613;28;20063;-70
2022/12/06 03:19:41;;;;;;;1.63;0.60;;;19.40;55.00;;;;;;4988260;28;20068;-61
2022/12/06 03:22:35;;;;;;;1.00;0.60;;;19.50;55.00;;;;;;4987407;28;20065;-62
2022/12/06 03:25:03;;;;;;;1.70;0.80;;;19.50;54.90;;;;;;4982531;28;20061;-62
2022/12/06 03:27:30;;;;;;;1.38;0.63;;;19.50;54.90;;;;;;4991744;28;20054;-64
2022/12/06 03:29:59;;;;;;;1.58;0.70;;;19.50;54.90;;;;;;4985768;28;20054;-62
2022/12/06 03:32:29;;;;;;;1.15;0.60;;;19.50;54.80;;;;;;4987272;28;20084;-64
2022/12/06 03:34:59;;;;;;;1.02;0.77;;;19.50;54.90;;;;;;4978900;28;20047;-63
2022/12/06 03:37:27;;;;;;;1.00;0.60;;;19.50;54.80;;;;;;4986406;28;20058;-62
2022/12/06 03:39:53;;;;;;;1.20;0.60;;;19.50;54.80;;;;;;4988013;28;20421;-62
2022/12/06 03:42:19;;;;;;;1.55;0.60;;;19.50;54.80;;;;;;4986689;28;20050;-63
2022/12/06 03:44:46;;;;;;;1.52;0.75;;;19.50;54.80;;;;;;4988608;28;20600;-62
2022/12/06 03:47:16;;;;;;;1.05;0.60;;;19.50;54.80;;;;;;4990668;28;20062;-66
2022/12/06 03:49:50;;;;;;;0.65;0.45;;;19.50;54.80;;;;;;4977508;28;20054;-65
2022/12/06 03:52:15;;;;;;;0.73;0.60;;;19.50;54.70;;;;;;4984160;28;20118;-62
2022/12/06 03:54:41;;;;;;;0.82;0.52;;;19.50;54.70;;;;;;4992833;28;20525;-66
2022/12/06 03:57:08;;;;;;;1.20;0.55;;;19.50;54.70;;;;;;4983992;28;20093;-61
2022/12/06 03:59:33;;;;;;;0.85;0.57;;;19.50;54.70;;;;;;4985521;28;20045;-62
2022/12/06 04:01:59;;;;;;;1.27;0.60;;;19.50;54.70;;;;;;4983241;28;20054;-62
2022/12/06 04:04:24;;;;;;;2.28;0.52;;;19.50;54.60;;;;;;4987610;28;20059;-62
2022/12/06 04:06:51;;;;;;;1.95;0.50;;;19.50;54.60;;;;;;4981828;28;20045;-62
2022/12/06 04:12:01;;;;;;;1.42;0.77;;;19.50;54.60;;;;;;4989204;28;20062;-65
2022/12/06 04:14:31;;;;;;;0.93;0.63;;;19.50;54.60;;;;;;4984966;28;20068;-63
2022/12/06 04:19:42;;;;;;;1.70;0.75;;;19.50;54.60;;;;;;4985152;28;20062;-72
2022/12/06 04:24:52;;;;;;;1.00;0.50;;;19.50;54.50;;;;;;4979668;28;20066;-72
2022/12/06 04:41:00;;;;;;;1.05;0.50;;;19.50;54.20;;;;;;4984239;28;20055;-62
2022/12/06 04:43:41;;;;;;;0.77;0.60;;;19.60;54.30;;;;;;4987750;28;20145;-65
2022/12/06 04:46:11;;;;;;;0.75;0.40;;;19.50;54.20;;;;;;4980803;28;20521;-70
2022/12/06 04:48:37;;;;;;;1.63;0.65;;;19.60;54.20;;;;;;4988182;28;20061;-65
2022/12/06 04:51:03;;;;;;;0.50;0.40;;;19.60;54.30;;;;;;4985117;28;20848;-72
2022/12/06 04:53:29;;;;;;;1.25;0.50;;;19.50;54.10;;;;;;4985312;28;21050;-69
2022/12/06 04:55:55;;;;;;;0.60;0.50;;;19.60;54.20;;;;;;4983797;28;20057;-68
2022/12/06 04:58:20;;;;;;;1.70;0.60;;;19.60;54.10;;;;;;4985999;28;20062;-66
2022/12/06 05:00:53;;;;;;;1.17;0.40;;;19.60;54.10;;;;;;4985744;28;20046;-62
2022/12/06 05:03:20;;;;;;;0.85;0.60;;;19.60;54.00;;;;;;4992380;28;20261;-64
2022/12/06 05:05:46;;;;;;;0.60;0.40;;;19.60;55.00;;;;;;4980312;28;20058;-65
2022/12/06 05:08:12;;;;;;;0.98;0.60;;;19.60;54.00;;;;;;4984766;28;20069;-68
2022/12/06 05:10:38;;;;;;;0.98;0.60;;;19.60;54.00;;;;;;4987920;28;20107;-71
2022/12/06 05:13:04;;;;;;;0.45;0.32;;;19.60;54.00;;;;;;4985418;28;20061;-72
2022/12/06 05:15:30;;;;;;;0.70;0.40;;;19.50;54.00;;;;;;4989883;28;20128;-66
2022/12/06 05:17:56;;;;;;;0.70;0.50;;;19.60;54.00;;;;;;4982210;28;20058;-65
2022/12/06 05:20:22;;;;;;;2.13;0.52;;;19.50;54.00;;;;;;4983427;28;20108;-72
2022/12/06 05:22:48;;;;;;;0.90;0.40;;;19.50;53.90;;;;;;4980298;28;20062;-63
2022/12/06 05:25:15;;;;;;;1.05;0.50;;;19.50;54.00;;;;;;4986290;28;20634;-62
2022/12/06 05:27:41;;;;;;;0.98;0.40;;;19.60;54.00;;;;;;4981255;28;20055;-69
2022/12/06 05:30:08;;;;;;;0.60;0.40;;;19.50;53.90;;;;;;4980140;28;20080;-73
2022/12/06 05:32:34;;;;;;;0.73;0.50;;;19.50;53.90;;;;;;4983765;28;20063;-71
2022/12/06 05:34:59;;;;;;;1.02;0.40;;;19.50;53.90;;;;;;4988452;28;20575;-66
2022/12/06 05:37:25;;;;;;;0.80;0.52;;;19.50;53.90;;;;;;4988306;28;20125;-72
2022/12/06 05:39:50;;;;;;;1.55;0.43;;;19.50;54.60;;;;;;4980995;28;20055;-70
2022/12/06 05:42:16;;;;;;;1.55;0.55;;;19.50;53.90;;;;;;4987525;28;20536;-63
2022/12/06 05:44:42;;;;;;;0.85;0.57;;;19.50;53.90;;;;;;4986177;28;20556;-63
2022/12/06 05:47:08;;;;;;;0.57;0.43;;;19.50;53.80;;;;;;4989522;28;20054;-67
2022/12/06 05:49:33;;;;;;;0.73;0.43;;;19.50;53.80;;;;;;4981429;28;20152;-70
2022/12/06 05:51:59;;;;;;;1.08;0.50;;;19.40;53.80;;;;;;4982345;28;20089;-73
2022/12/06 05:54:24;;;;;;;0.85;0.50;;;19.50;53.80;;;;;;4987098;28;20062;-68
2022/12/06 05:56:50;;;;;;;0.50;0.40;;;19.50;53.90;;;;;;4984469;28;20137;-69
2022/12/06 05:59:16;;;;;;;2.05;0.40;;;19.50;53.80;;;;;;4980352;28;20058;-72
2022/12/06 06:01:42;;;;;;;0.60;0.40;;;19.50;53.80;;;;;;4978686;28;20053;-72
2022/12/06 06:04:08;;;;;;;0.60;0.40;;;19.50;53.90;;;;;;4985224;28;20332;-63
2022/12/06 06:06:33;;;;;;;0.70;0.50;;;19.50;53.80;;;;;;4980283;28;20098;-71
2022/12/06 06:08:59;;;;;;;0.95;0.50;;;19.50;53.70;;;;;;4988291;28;20072;-68
2022/12/06 06:11:25;;;;;;;0.75;0.45;;;19.50;53.80;;;;;;4980603;28;20072;-62
2022/12/06 06:13:53;;;;;;;0.80;0.43;;;19.50;53.80;;;;;;4981511;28;20410;-69
2022/12/06 06:16:19;;;;;;;0.60;0.40;;;19.50;53.70;;;;;;4976476;28;20904;-72
2022/12/06 06:18:45;;;;;;;0.63;0.40;;;19.50;53.70;;;;;;4984100;28;20628;-62
2022/12/06 06:21:14;;;;;;;0.60;0.50;;;19.50;53.70;;;;;;4988263;28;20054;-65
2022/12/06 06:23:41;;;;;;;0.60;0.38;;;19.50;53.70;;;;;;4979945;28;20085;-74
2022/12/06 06:26:08;;;;;;;0.95;0.50;;;19.50;53.70;;;;;;4990757;28;20072;-71
2022/12/06 06:28:34;;;;;;;1.05;0.55;;;19.50;53.60;;;;;;4980378;28;20201;-69
2022/12/06 06:31:05;;;;;;;0.65;0.32;;;19.50;53.60;;;;;;4976035;28;20141;-67
2022/12/06 06:33:32;;;;;;;1.58;0.40;;;19.50;53.60;;;;;;4978949;28;20056;-68
2022/12/06 06:35:57;;;;;;;0.50;0.30;;;19.50;53.60;;;;;;4977227;28;20057;-69
2022/12/06 06:38:23;;;;;;;1.13;0.50;;;19.50;53.60;;;;;;4985990;28;21618;-73
2022/12/06 06:40:48;;;;;;;0.63;0.40;;;19.50;53.60;;;;;;4980105;28;20051;-72
2022/12/06 06:43:17;;;;;;;0.80;0.45;;;19.50;53.60;;;;;;4980239;28;20070;-70
2022/12/06 06:45:53;;;;;;;1.45;0.50;;;19.50;53.70;;;;;;4985049;28;20072;-71
2022/12/06 06:48:20;;;;;;;0.98;0.40;;;19.50;54.00;;;;;;4981936;28;20065;-73
2022/12/06 06:50:46;;;;;;;2.33;0.45;;;19.50;54.00;;;;;;4986104;28;20695;-73
2022/12/06 06:53:12;;;;;;;2.40;0.50;;;19.50;54.30;;;;;;4981524;28;20078;-70
2022/12/06 06:55:38;;;;;;;1.17;0.60;;;19.50;54.40;;;;;;4980189;28;20925;-65
2022/12/06 07:01:07;;;;;;;1.35;0.70;;;19.50;54.50;;;;;;4881535;27;20348;-68
2022/12/06 07:03:33;;;;;;;1.38;0.50;;;19.50;54.50;;;;;;4902584;28;20078;-69
2022/12/06 07:06:17;;;;;;;2.72;0.50;;;19.50;54.50;;;;;;4890534;29;20063;-68
2022/12/06 07:08:45;;;;;;;2.25;0.60;;;19.50;54.50;;;;;;4881230;29;20068;-67
2022/12/06 07:11:13;;;;;;;3.22;0.45;;;19.50;54.50;;;;;;4895959;29;20064;-68
2022/12/06 07:13:40;;;;;;;2.90;0.57;;;19.50;54.60;;;;;;4881071;29;21043;-66
2022/12/06 07:16:11;;;;;;;2.20;0.70;;;19.40;54.60;;;;;;4892495;29;20060;-68
2022/12/06 07:22:50;;;;;;;16.40;0.90;;;19.40;54.40;;;;;;6057018;23;20418;31
2022/12/06 07:25:15;;;;;;;8.85;0.80;;;19.40;54.50;;;;;;4872172;29;20060;-72
2022/12/06 07:27:41;;;;;;;2.38;0.82;;;19.40;54.50;;;;;;4895840;29;20048;-70
2022/12/06 07:30:07;;;;;;;1.75;0.77;;;19.30;54.50;;;;;;4883889;29;20068;-67
2022/12/06 07:32:36;;;;;;;3.03;1.05;;;19.40;54.60;;;;;;4888809;29;20048;-69
2022/12/06 07:35:03;;;;;;;3.22;1.27;;;19.30;54.60;;;;;;4878342;29;20060;-71
2022/12/06 07:37:29;;;;;;;6.50;1.03;;;19.30;54.50;;;;;;4885129;29;20305;-66
2022/12/06 07:39:55;;;;;;;2.20;0.98;;;19.30;54.50;;;;;;4883851;29;20511;-72
2022/12/06 07:45:07;;;;;;;8.23;1.30;;;19.40;54.60;;;;;;4872857;29;20701;-75
2022/12/06 07:47:44;;;;;;;3.83;1.02;;;19.30;54.50;;;;;;4886600;29;20056;-70
2022/12/06 07:50:13;;;;;;;2.72;1.08;;;19.40;54.40;;;;;;4889566;29;20047;-72
2022/12/06 07:52:40;;;;;;;4.93;1.25;;;19.40;54.40;;;;;;4886930;29;20049;-70
2022/12/06 07:55:07;;;;;;;3.90;1.17;;;19.40;54.40;;;;;;4888554;29;20068;-71
2022/12/06 07:57:33;;;;;;;2.90;1.25;;;19.40;54.40;;;;;;4887051;29;20047;-73
2022/12/06 07:59:59;;;;;;;3.25;1.25;;;19.40;54.30;;;;;;4893933;29;20123;-65
2022/12/06 08:02:27;;;;;;;4.55;1.77;;;19.40;54.30;;;;;;4886194;29;20055;-69
2022/12/06 08:04:54;;;;;;;3.63;1.20;;;19.40;54.20;;;;;;4885608;29;20049;-68
2022/12/06 08:07:21;;;;;;;3.83;1.30;;;19.50;54.20;;;;;;4885482;29;20037;-73
2022/12/06 08:09:47;;;;;;;3.85;1.48;;;19.60;53.90;;;;;;4885904;29;20131;-69
2022/12/06 08:12:13;;;;;;;3.15;1.02;;;19.70;53.60;;;;;;4883096;29;20037;-72
2022/12/06 08:14:39;;;;;;;5.22;1.20;;;19.90;53.30;;;;;;4884098;29;20037;-72
2022/12/06 08:17:05;;;;;;;2.78;1.17;;;19.90;53.30;;;;;;4888571;29;20092;-72
2022/12/06 08:19:31;;;;;;;7.93;1.70;;;19.90;53.40;;;;;;4887576;29;20063;-73
2022/12/06 08:21:57;;;;;;;2.63;1.08;;;19.90;53.40;;;;;;4883308;29;20053;-72
2022/12/06 08:24:23;;;;;;;6.95;1.30;;;19.80;53.50;;;;;;4900487;29;20079;-65
2022/12/06 08:26:49;;;;;;;3.63;1.60;;;19.80;53.50;;;;;;4905513;29;20768;-65
2022/12/06 08:29:15;;;;;;;5.28;1.50;;;19.80;53.60;;;;;;4905736;29;20063;-72
2022/12/06 08:31:42;;;;;;;6.28;1.40;;;19.80;53.60;;;;;;4905129;29;20040;-65
2022/12/06 08:34:08;;;;;;;9.00;1.40;;;19.80;53.60;;;;;;4902329;29;20055;-67
2022/12/06 08:36:36;;;;;;;5.40;1.40;;;19.80;53.60;;;;;;4905990;29;20055;-67
2022/12/06 08:39:02;;;;;;;4.13;1.48;;;19.90;53.70;;;;;;4888250;29;20123;-70
2022/12/06 08:44:13;;;;;;;3.90;1.50;;;19.90;53.70;;;;;;4904055;29;20052;-65
2022/12/06 08:46:40;;;;;;;4.17;1.40;;;19.90;53.70;;;;;;4889145;29;20044;-65
2022/12/06 08:49:05;;;;;;;3.78;1.65;;;19.90;53.70;;;;;;4904320;29;20138;-65
2022/12/06 08:51:33;;;;;;;3.08;1.40;;;19.90;53.70;;;;;;4890332;29;21144;-64
2022/12/06 08:53:59;;;;;;;3.72;1.55;;;19.90;53.60;;;;;;4888270;29;20144;-63
2022/12/06 08:56:25;;;;;;;4.82;1.52;;;19.90;53.50;;;;;;4906089;29;20412;-64
2022/12/06 08:58:54;;;;;;;3.67;1.40;;;19.90;53.40;;;;;;4902409;29;20040;-68
2022/12/06 09:01:24;;;;;;;4.05;1.63;;;19.90;53.50;;;;;;4903343;29;20055;-71
2022/12/06 09:03:49;;;;;;;4.88;1.55;;;19.90;53.40;;;;;;4904537;29;20036;-66
2022/12/06 09:06:16;;;;;;;3.50;1.55;;;19.90;53.40;;;;;;4906411;29;20407;-67
2022/12/06 09:08:44;;;;;;;3.83;1.50;;;19.90;53.40;;;;;;4904466;29;20046;-67
2022/12/06 09:11:10;;;;;;;5.05;1.73;;;19.90;53.50;;;;;;4905342;29;20135;-73
2022/12/06 09:13:37;;;;;;;4.82;1.27;;;19.90;53.60;;;;;;4902920;29;20051;-68
2022/12/06 09:16:09;;;;;;;6.35;1.60;;;19.90;53.60;;;;;;4889536;29;20040;-63
2022/12/06 09:18:35;;;;;;;6.20;1.70;;;19.90;53.70;;;;;;4904563;29;20044;-68
2022/12/06 09:21:08;;;;;;;6.50;1.60;;;19.90;53.70;;;;;;4896838;29;20036;-67
2022/12/06 09:23:35;;;;;;;4.47;1.50;;;19.90;53.70;;;;;;4898489;29;20060;-62
2022/12/06 09:26:02;;;;;;;3.15;1.42;;;19.90;53.70;;;;;;4900067;29;20056;-65
2022/12/06 09:28:29;;;;;;;5.60;1.60;;;19.90;53.80;;;;;;4907980;29;20080;-61
2022/12/06 09:30:56;;;;;;;1.92;1.27;;;19.80;53.80;;;;;;4891951;29;20048;-65
2022/12/06 09:33:23;;;;;;;8.73;2.15;;;19.90;53.90;;;;;;4907582;29;20044;-61
2022/12/06 09:35:54;;;;;;;7.07;1.50;;;19.90;53.80;;;;;;4901713;29;20044;-69
2022/12/06 09:38:23;;;;;;;5.68;1.52;;;19.90;53.80;;;;;;4886933;29;20060;-59
2022/12/06 09:41:22;;;;;;;5.05;1.75;;;20.00;53.80;;;;;;4903099;29;20518;-64
2022/12/06 09:44:03;;;;;;;4.38;1.67;;;20.00;53.80;;;;;;4902159;29;20048;-64
2022/12/06 09:46:41;;;;;;;2.40;1.10;;;20.00;53.80;;;;;;4902626;29;20056;-64
2022/12/06 09:49:29;;;;;;;3.75;1.70;;;19.90;53.80;;;;;;4903940;29;20044;-63
2022/12/06 09:52:17;;;;;;;4.32;1.33;;;19.90;53.90;;;;;;4904552;29;20051;-67
2022/12/06 09:54:58;;;;;;;4.10;1.17;;;19.90;54.00;;;;;;4905729;29;20078;-65
2022/12/06 09:57:40;;;;;;;7.82;1.30;;;19.90;54.10;;;;;;4904309;29;20048;-63
2022/12/06 10:00:16;;;;;;;8.55;1.27;;;19.90;54.10;;;;;;4886384;29;20803;-65
2022/12/06 10:03:09;;;;;;;4.70;1.42;;;19.90;54.10;;;;;;4901137;29;20052;-70
2022/12/06 10:05:54;;;;;;;4.50;1.40;;;19.90;54.10;;;;;;4903185;29;20051;-66
2022/12/06 10:08:19;;;;;;;3.42;1.40;;;19.90;54.10;;;;;;4902853;29;20075;-65
2022/12/06 10:11:00;;;;;;;3.28;1.30;;;19.90;54.10;;;;;;4901973;29;20119;-68
2022/12/06 10:14:01;;;;;;;3.42;1.60;;;19.90;54.10;;;;;;4905248;29;20043;-66
2022/12/06 10:16:35;;;;;;;3.90;1.05;;;19.90;54.10;;;;;;4898170;29;20052;-63
2022/12/06 10:19:16;;;;;;;4.15;1.48;;;19.90;54.10;;;;;;4887617;29;20048;-60
2022/12/06 10:22:20;;;;;;;2.72;1.33;;;19.90;54.10;;;;;;4906560;29;20388;-61
2022/12/06 10:25:07;;;;;;;4.97;1.20;;;19.90;54.00;;;;;;4901342;29;20068;-64
2022/12/06 10:27:33;;;;;;;2.67;1.27;;;19.90;53.90;;;;;;4892156;29;20056;-64
2022/12/06 10:30:09;;;;;;;5.03;1.23;;;19.80;53.80;;;;;;4906129;29;20839;-61
2022/12/06 10:33:04;;;;;;;5.38;1.50;;;19.80;53.60;;;;;;4904772;29;20044;-62
2022/12/06 10:35:49;;;;;;;4.32;1.20;;;19.80;53.50;;;;;;4905585;29;20051;-65
2022/12/06 10:38:54;;;;;;;5.25;1.40;;;19.80;53.60;;;;;;4904049;29;20056;-63
2022/12/06 10:41:35;;;;;;;4.72;1.30;;;19.80;53.60;;;;;;4891819;29;20064;-64
2022/12/06 10:44:26;;;;;;;2.65;1.20;;;19.80;53.60;;;;;;4907008;29;20036;-64
2022/12/06 10:47:11;;;;;;;3.58;1.20;;;19.80;53.60;;;;;;4900238;29;20136;-65
2022/12/06 10:49:56;;;;;;;6.97;1.48;;;19.80;53.60;;;;;;4905847;29;20040;-63
2022/12/06 10:52:45;;;;;;;2.70;1.17;;;19.70;53.60;;;;;;4904775;29;20059;-63
2022/12/06 10:55:17;;;;;;;4.03;1.13;;;19.70;53.70;;;;;;4885632;29;20032;-60
2022/12/06 10:57:58;;;;;;;2.50;1.10;;;19.70;53.70;;;;;;4906751;29;20111;-62
2022/12/06 11:00:31;;;;;;;2.75;1.25;;;19.70;53.70;;;;;;4907235;29;20072;-63
2022/12/06 11:03:09;;;;;;;4.47;1.20;;;19.70;53.60;;;;;;4911163;29;20064;-62
2022/12/06 11:05:47;;;;;;;2.90;1.10;;;19.70;53.60;;;;;;4904022;29;20056;-63
2022/12/06 11:08:15;;;;;;;1.25;0.85;;;19.70;53.60;;;;;;4907389;29;20102;-60
2022/12/06 11:10:43;;;;;;;2.93;1.23;;;19.70;53.70;;;;;;4909561;29;20071;-62
2022/12/06 11:13:21;;;;;;;2.13;0.90;;;19.70;53.60;;;;;;4910384;29;20651;-60
2022/12/06 11:16:19;;;;;;;2.97;1.23;;;19.70;53.60;;;;;;4906750;29;20431;-62
2022/12/06 11:18:47;;;;;;;2.88;1.15;;;19.70;53.50;;;;;;4901189;29;20048;-62
2022/12/06 11:21:19;;;;;;;2.15;1.05;;;19.70;53.60;;;;;;4911167;29;20458;-62
2022/12/06 11:24:10;;;;;;;4.47;1.00;;;19.80;53.60;;;;;;4885078;29;20060;-64
2022/12/06 11:26:46;;;;;;;3.90;0.98;;;19.70;53.10;;;;;;4890384;29;20619;-60
2022/12/06 11:29:14;;;;;;;2.95;1.30;;;19.60;51.50;;;;;;4907603;29;20059;-62
2022/12/06 11:31:47;;;;;;;3.75;1.13;;;19.50;50.90;;;;;;4907108;29;20056;-62
2022/12/06 11:34:35;;;;;;;4.20;1.35;;;19.40;50.00;;;;;;4908535;29;20087;-62
2022/12/06 11:37:02;;;;;;;2.88;1.40;;;19.20;47.60;;;;;;4907589;29;20044;-64
2022/12/06 11:39:29;;;;;;;2.97;1.05;;;19.20;49.00;;;;;;4908815;29;20052;-67
2022/12/06 11:41:58;;;;;;;2.88;1.08;;;19.20;49.80;;;;;;4893201;29;20815;-69
2022/12/06 11:44:42;;;;;;;4.30;0.93;;;19.20;50.00;;;;;;4906992;29;20048;-68
2022/12/06 11:47:14;;;;;;;5.75;1.00;;;19.20;49.80;;;;;;4907435;29;20092;-61
2022/12/06 11:49:43;;;;;;;3.90;1.00;;;19.30;50.00;;;;;;4909733;29;20056;-62
2022/12/06 11:52:40;;;;;;;2.80;0.98;;;19.40;50.10;;;;;;4907104;29;20044;-60
2022/12/06 11:55:27;;;;;;;3.17;1.05;;;19.40;49.90;;;;;;4877649;29;20050;-60
2022/12/06 11:58:02;;;;;;;2.92;1.10;;;19.50;49.70;;;;;;4908932;29;20052;-60
2022/12/06 12:00:28;;;;;;;2.63;0.90;;;19.50;49.90;;;;;;4910443;29;20040;-61
2022/12/06 12:02:55;;;;;;;2.78;0.80;;;19.60;50.00;;;;;;4908462;29;20099;-62
2022/12/06 12:05:33;;;;;;;4.38;1.02;;;19.60;50.00;;;;;;4893834;29;20531;-60
2022/12/06 12:08:03;;;;;;;2.95;1.00;;;19.60;50.00;;;;;;4903091;29;20052;-60
2022/12/06 12:10:41;;;;;;;2.80;1.00;;;19.60;49.90;;;;;;4904010;29;20690;-62
2022/12/06 12:16:16;;;;;;;4.25;1.20;;;19.70;49.90;;;;;;4906701;29;20408;-61
2022/12/06 12:19:04;;;;;;;1.42;0.88;;;19.70;49.90;;;;;;4907729;29;20056;-64
2022/12/06 12:21:34;;;;;;;2.25;0.90;;;19.70;49.90;;;;;;4905335;29;20040;-71
2022/12/06 12:24:01;;;;;;;3.45;0.90;;;19.70;50.70;;;;;;4911237;29;20130;-64
2022/12/06 12:26:36;;;;;;;1.10;0.70;;;19.70;49.90;;;;;;4909106;29;20040;-61
2022/12/06 12:29:14;;;;;;;1.73;0.60;;;19.70;49.90;;;;;;4909683;29;20048;-63
2022/12/06 12:32:08;;;;;;;1.90;1.00;;;19.70;49.90;;;;;;4908326;29;20067;-63
2022/12/06 12:34:33;;;;;;;1.73;0.80;;;19.70;49.80;;;;;;4910495;29;20087;-66
2022/12/06 12:37:03;;;;;;;3.72;0.90;;;19.80;49.80;;;;;;4891210;29;20094;-65
2022/12/06 12:39:39;;;;;;;3.10;1.08;;;19.80;49.90;;;;;;4907487;29;20131;-62
2022/12/06 12:42:33;;;;;;;1.98;0.80;;;19.80;49.80;;;;;;4908278;29;20052;-60
2022/12/06 12:45:03;;;;;;;2.17;0.80;;;19.80;49.80;;;;;;4905688;29;20382;-63
2022/12/06 12:47:30;;;;;;;1.33;0.80;;;19.80;49.90;;;;;;4909463;29;20508;-63
2022/12/06 12:50:21;;;;;;;1.80;0.87;;;19.80;49.90;;;;;;4908799;29;20044;-62
2022/12/06 12:52:48;;;;;;;2.35;1.05;;;19.90;49.90;;;;;;4906545;29;20496;-64
2022/12/06 12:55:28;;;;;;;2.20;0.80;;;19.80;49.80;;;;;;4910612;29;20072;-63
2022/12/06 12:57:56;;;;;;;1.83;0.95;;;19.80;49.70;;;;;;4908984;29;20102;-63
2022/12/06 13:00:23;;;;;;;;;;;19.80;49.80;;;;;;4908129;29;20100;-63
2022/12/06 13:02:56;;;;;;;2.50;0.70;;;19.80;49.90;;;;;;4906421;29;20003;-65
2022/12/06 13:05:26;;;;;;;2.03;0.80;;;19.80;49.90;;;;;;4908558;29;20044;-63
2022/12/06 13:07:55;;;;;;;4.82;0.80;;;19.80;49.70;;;;;;4906827;29;20099;-63
2022/12/06 13:10:30;;;;;;;1.17;0.90;;;19.80;49.70;;;;;;4907963;29;20052;-64
2022/12/06 13:13:15;;;;;;;3.63;1.00;;;19.70;49.50;;;;;;4905822;29;20525;-63
2022/12/06 13:15:50;;;;;;;2.60;0.90;;;19.70;49.50;;;;;;4907344;29;20047;-64
2022/12/06 13:18:18;;;;;;;2.25;0.88;;;19.70;49.40;;;;;;4908513;29;20070;-63
2022/12/06 13:20:45;;;;;;;;;;;19.70;49.50;;;;;;4917493;29;20082;-64
2022/12/06 13:23:14;;;;;;;2.65;0.90;;;19.70;49.40;;;;;;4883734;29;19966;-63
2022/12/06 13:25:44;;;;;;;1.42;0.70;;;19.60;49.40;;;;;;4907266;29;20135;-63
2022/12/06 13:28:17;;;;;;;1.73;0.70;;;19.60;49.40;;;;;;4898525;29;20044;-63
2022/12/06 13:30:44;;;;;;;1.25;0.77;;;19.60;49.30;;;;;;4908267;29;20040;-63
2022/12/06 13:33:24;;;;;;;1.33;0.80;;;19.60;49.40;;;;;;4906912;29;20545;-64
2022/12/06 13:36:10;;;;;;;2.30;0.93;;;19.60;49.30;;;;;;4907369;29;20590;-68
2022/12/06 13:38:38;;;;;;;5.00;1.00;;;19.60;49.30;;;;;;4884899;29;20067;-65
2022/12/06 13:42:16;;;;;;;1.80;0.90;;;19.60;49.40;;;;;;4904315;29;20079;-65
2022/12/06 13:44:00;;;;;;;1.88;0.80;;;19.60;49.50;;;;;;4903713;29;20110;-64
2022/12/06 13:46:28;;;;;;;2.28;0.63;;;19.60;49.70;;;;;;4907149;29;20071;-64
2022/12/06 13:49:25;;;;;;;1.52;0.68;;;19.60;49.70;;;;;;4906290;29;20186;-63